Time;durP1;ratioP1;P1;durP2;ratioP2;P2;SDS_P1;SDS_P2;PMS_P1;PMS_P2;Temp;Humidity;BMP_temperature;BMP_pressure;BME280_temperature;BME280_humidity;BME280_pressure;Samples;Min_cycle;Max_cycle;Signal;HPM_P1;HPM_P2
2023/04/17 00:01:39;;;;;;;18.33;12.30;;;10.90;99.90;;;;;;4891306;29;20081;-75
2023/04/17 00:04:09;;;;;;;17.58;12.30;;;10.90;99.90;;;;;;4897163;29;20036;-72
2023/04/17 00:06:36;;;;;;;16.23;11.70;;;10.90;99.90;;;;;;4897847;29;20113;-71
2023/04/17 00:09:03;;;;;;;16.85;10.55;;;10.90;99.90;;;;;;4897321;29;20073;-74
2023/04/17 00:11:29;;;;;;;17.77;11.55;;;10.80;99.90;;;;;;4897651;29;20140;-76
2023/04/17 00:13:54;;;;;;;17.08;11.35;;;10.80;99.90;;;;;;4891846;29;20111;-74
2023/04/17 00:16:20;;;;;;;19.20;12.20;;;10.90;99.90;;;;;;4891008;29;20075;-72
2023/04/17 00:18:46;;;;;;;17.63;11.95;;;10.80;99.90;;;;;;4884332;29;20056;-69
2023/04/17 00:21:12;;;;;;;18.90;11.93;;;10.80;99.90;;;;;;4897444;29;20485;-72
2023/04/17 00:23:38;;;;;;;16.85;11.73;;;10.80;99.90;;;;;;4897344;29;20032;-74
2023/04/17 00:26:04;;;;;;;16.83;11.90;;;10.80;99.90;;;;;;4897177;29;20068;-73
2023/04/17 00:28:31;;;;;;;17.95;11.85;;;10.80;99.90;;;;;;4897364;29;20028;-76
2023/04/17 00:30:57;;;;;;;16.73;11.10;;;10.80;99.90;;;;;;4897167;29;20029;-75
2023/04/17 00:33:24;;;;;;;16.13;11.52;;;10.80;99.90;;;;;;4896684;29;20029;-75
2023/04/17 00:35:50;;;;;;;18.38;12.27;;;10.80;99.90;;;;;;4880167;29;20128;-71
2023/04/17 00:38:17;;;;;;;16.05;11.40;;;10.70;99.90;;;;;;4897175;29;20496;-75
2023/04/17 00:40:44;;;;;;;17.27;11.10;;;10.70;99.90;;;;;;4897204;29;20342;-73
2023/04/17 00:43:10;;;;;;;17.73;12.30;;;10.70;99.90;;;;;;4880746;29;20044;-73
2023/04/17 00:45:36;;;;;;;18.25;11.65;;;10.70;99.90;;;;;;4896963;29;20028;-75
2023/04/17 00:48:05;;;;;;;17.17;12.13;;;10.70;99.90;;;;;;4897150;29;20409;-74
2023/04/17 00:50:32;;;;;;;16.77;11.50;;;10.70;99.90;;;;;;4888571;29;20028;-77
2023/04/17 00:52:58;;;;;;;18.10;12.40;;;10.70;99.90;;;;;;4900405;29;20044;-73
2023/04/17 00:55:25;;;;;;;19.92;11.25;;;10.70;99.90;;;;;;4897256;29;20016;-76
2023/04/17 00:57:51;;;;;;;19.27;12.20;;;10.60;99.90;;;;;;4880312;29;20071;-72
2023/04/17 01:00:17;;;;;;;17.85;11.18;;;10.60;99.90;;;;;;4896918;29;20056;-75
2023/04/17 01:02:44;;;;;;;16.17;11.23;;;10.60;99.90;;;;;;4896783;29;20032;-75
2023/04/17 01:05:10;;;;;;;17.83;11.80;;;10.60;99.90;;;;;;4896979;29;20016;-76
2023/04/17 01:07:38;;;;;;;19.05;11.90;;;10.50;99.90;;;;;;4877997;29;20434;-74
2023/04/17 01:10:05;;;;;;;16.10;10.73;;;10.50;99.90;;;;;;4886868;29;20024;-75
2023/04/17 01:12:31;;;;;;;21.45;12.70;;;10.50;99.90;;;;;;4896703;29;20048;-75
2023/04/17 01:14:57;;;;;;;19.73;12.52;;;10.40;99.90;;;;;;4879977;29;20029;-73
2023/04/17 01:17:27;;;;;;;18.67;12.02;;;10.40;99.90;;;;;;4878434;29;20063;-77
2023/04/17 01:19:54;;;;;;;18.70;12.27;;;10.40;99.90;;;;;;4879434;29;20052;-71
2023/04/17 01:22:20;;;;;;;18.00;11.85;;;10.40;99.90;;;;;;4896260;29;20053;-77
2023/04/17 01:24:49;;;;;;;21.35;12.95;;;10.50;99.90;;;;;;4879829;29;20039;-75
2023/04/17 01:27:15;;;;;;;19.05;12.38;;;10.50;99.90;;;;;;4878372;29;20031;-76
2023/04/17 01:29:43;;;;;;;15.52;10.68;;;10.50;99.90;;;;;;4894759;29;20028;-77
2023/04/17 01:32:10;;;;;;;16.25;11.13;;;10.50;99.90;;;;;;4886019;29;20047;-77
2023/04/17 01:34:36;;;;;;;16.75;10.77;;;10.50;99.90;;;;;;4878712;29;20029;-76
2023/04/17 01:37:02;;;;;;;16.13;11.27;;;10.40;99.90;;;;;;4879170;29;20084;-77
2023/04/17 01:39:27;;;;;;;18.52;10.75;;;10.40;99.90;;;;;;4879877;29;20040;-75
2023/04/17 01:41:53;;;;;;;22.45;12.02;;;10.40;99.90;;;;;;4896317;29;20037;-74
2023/04/17 01:44:20;;;;;;;16.23;10.73;;;10.40;99.90;;;;;;4879647;29;20032;-71
2023/04/17 01:46:46;;;;;;;17.95;11.25;;;10.30;99.90;;;;;;4899714;29;20025;-73
2023/04/17 01:49:14;;;;;;;18.05;11.82;;;10.40;99.90;;;;;;4883059;29;20037;-77
2023/04/17 01:51:40;;;;;;;16.70;10.93;;;10.40;99.90;;;;;;4882484;29;20504;-72
2023/04/17 01:54:06;;;;;;;16.75;11.70;;;10.30;99.90;;;;;;4881402;29;20213;-73
2023/04/17 01:56:32;;;;;;;16.25;11.30;;;10.30;99.90;;;;;;4881169;29;20425;-72
2023/04/17 01:58:57;;;;;;;18.35;11.82;;;10.30;99.90;;;;;;4899156;29;20046;-75
2023/04/17 02:01:23;;;;;;;15.90;11.50;;;10.30;99.90;;;;;;4868028;29;20037;-77
2023/04/17 02:03:49;;;;;;;18.10;11.73;;;10.30;99.90;;;;;;4865818;29;20025;-75
2023/04/17 02:06:15;;;;;;;15.45;11.30;;;10.40;99.90;;;;;;4889964;29;20060;-77
2023/04/17 02:08:43;;;;;;;17.88;11.88;;;10.30;99.90;;;;;;4876683;29;20028;-77
2023/04/17 02:11:09;;;;;;;16.85;10.70;;;10.30;99.90;;;;;;4896965;29;20098;-75
2023/04/17 02:13:35;;;;;;;17.95;11.40;;;10.20;99.90;;;;;;4899704;29;20024;-77
2023/04/17 02:16:02;;;;;;;16.08;11.48;;;10.20;99.90;;;;;;4899543;29;20017;-75
2023/04/17 02:18:28;;;;;;;16.17;11.68;;;10.20;99.90;;;;;;4882490;29;20061;-75
2023/04/17 02:20:54;;;;;;;19.17;11.30;;;10.20;99.90;;;;;;4881866;29;20036;-77
2023/04/17 02:23:20;;;;;;;20.00;11.55;;;10.10;99.90;;;;;;4882043;29;20035;-75
2023/04/17 02:25:46;;;;;;;18.30;12.25;;;10.20;99.90;;;;;;4887347;29;20442;-77
2023/04/17 02:28:14;;;;;;;17.55;11.63;;;10.10;99.90;;;;;;4899396;29;20074;-77
2023/04/17 02:30:40;;;;;;;19.30;13.13;;;10.20;99.90;;;;;;4876303;29;20033;-77
2023/04/17 02:33:06;;;;;;;18.13;12.75;;;10.20;99.90;;;;;;4885287;29;20037;-78
2023/04/17 02:35:33;;;;;;;18.10;13.00;;;10.30;99.90;;;;;;4878175;29;20028;-77
2023/04/17 02:37:59;;;;;;;17.75;12.57;;;10.30;99.90;;;;;;4880778;29;20029;-77
2023/04/17 02:40:26;;;;;;;15.68;11.20;;;10.30;99.90;;;;;;4866423;29;20111;-77
2023/04/17 02:43:00;;;;;;;17.30;12.63;;;10.30;99.90;;;;;;4876055;29;20028;-78
2023/04/17 02:45:26;;;;;;;18.95;13.10;;;10.30;99.90;;;;;;4868747;29;20481;-77
2023/04/17 02:47:52;;;;;;;17.45;12.70;;;10.30;99.90;;;;;;4898919;29;20116;-76
2023/04/17 02:50:19;;;;;;;22.42;13.85;;;10.40;99.90;;;;;;4882576;29;20452;-78
2023/04/17 02:53:02;;;;;;;23.65;13.73;;;10.40;99.90;;;;;;4877439;29;20048;-78
2023/04/17 02:55:27;;;;;;;22.73;13.30;;;10.40;99.90;;;;;;4881826;29;20032;-77
2023/04/17 02:57:53;;;;;;;17.42;12.10;;;10.40;99.90;;;;;;4882042;29;20025;-77
2023/04/17 03:00:19;;;;;;;20.15;14.10;;;10.40;99.90;;;;;;4866093;29;20119;-72
2023/04/17 03:02:45;;;;;;;19.83;14.80;;;10.40;99.90;;;;;;4898790;29;20036;-77
2023/04/17 03:05:13;;;;;;;20.15;14.90;;;10.40;99.90;;;;;;4879212;29;20037;-78
2023/04/17 03:07:39;;;;;;;21.38;15.15;;;10.30;99.90;;;;;;4898588;29;20439;-78
2023/04/17 03:10:07;;;;;;;21.75;15.77;;;10.40;99.90;;;;;;4881827;29;20442;-77
2023/04/17 03:12:33;;;;;;;23.85;15.57;;;10.40;99.90;;;;;;4881685;29;20036;-77
2023/04/17 03:14:59;;;;;;;20.67;15.40;;;10.40;99.90;;;;;;4881837;29;20120;-78
2023/04/17 03:17:25;;;;;;;19.58;14.80;;;10.40;99.90;;;;;;4881745;29;20124;-78
2023/04/17 03:19:54;;;;;;;20.73;15.55;;;10.50;99.90;;;;;;4881223;29;20049;-77
2023/04/17 03:22:20;;;;;;;22.38;15.43;;;10.50;99.90;;;;;;4898587;29;20060;-74
2023/04/17 03:24:47;;;;;;;22.65;15.57;;;10.50;99.90;;;;;;4881784;29;20390;-75
2023/04/17 03:27:13;;;;;;;22.95;15.27;;;10.60;99.90;;;;;;4895556;29;20029;-75
2023/04/17 03:29:41;;;;;;;21.40;16.00;;;10.60;99.90;;;;;;4877068;29;20488;-75
2023/04/17 03:32:07;;;;;;;23.15;16.13;;;10.60;99.90;;;;;;4881125;29;20132;-76
2023/04/17 03:34:33;;;;;;;22.83;16.55;;;10.60;99.90;;;;;;4880968;29;20116;-77
2023/04/17 03:36:59;;;;;;;23.52;16.95;;;10.60;99.90;;;;;;4898180;29;20028;-78
2023/04/17 03:39:26;;;;;;;23.73;17.80;;;10.60;99.90;;;;;;4880708;29;20112;-77
2023/04/17 03:41:52;;;;;;;25.15;17.40;;;10.60;99.90;;;;;;4881099;29;20132;-76
2023/04/17 03:44:18;;;;;;;23.67;17.10;;;10.60;99.90;;;;;;4881452;29;20093;-75
2023/04/17 03:46:44;;;;;;;25.05;16.65;;;10.70;99.90;;;;;;4880922;29;20028;-76
2023/04/17 03:49:10;;;;;;;24.08;17.60;;;10.70;99.90;;;;;;4880895;29;20131;-76
2023/04/17 03:51:37;;;;;;;31.25;18.25;;;10.70;99.90;;;;;;4880969;29;20109;-76
2023/04/17 03:54:12;;;;;;;24.13;16.60;;;10.70;99.90;;;;;;4880489;29;20072;-76
2023/04/17 03:56:40;;;;;;;22.60;16.90;;;10.70;99.90;;;;;;4881321;29;20032;-77
2023/04/17 03:59:07;;;;;;;25.35;18.30;;;10.70;99.90;;;;;;4897760;29;20083;-77
2023/04/17 04:01:38;;;;;;;25.70;17.17;;;10.70;99.90;;;;;;4880922;29;20047;-77
2023/04/17 04:04:12;;;;;;;25.23;18.55;;;10.70;99.90;;;;;;4880544;29;20064;-78
2023/04/17 04:06:39;;;;;;;23.23;17.40;;;10.60;99.90;;;;;;4897188;29;20059;-78
2023/04/17 04:09:07;;;;;;;28.15;18.33;;;10.60;99.90;;;;;;4880263;29;20028;-78
2023/04/17 04:11:33;;;;;;;25.05;18.52;;;10.60;99.90;;;;;;4880837;29;20408;-78
2023/04/17 04:13:58;;;;;;;23.45;17.55;;;10.60;99.90;;;;;;4879900;29;20378;-78
2023/04/17 04:16:24;;;;;;;23.88;17.70;;;10.70;99.90;;;;;;4880677;29;20440;-78
2023/04/17 04:18:54;;;;;;;25.55;18.77;;;10.60;99.90;;;;;;4868282;29;20070;-74
2023/04/17 04:21:20;;;;;;;28.15;19.20;;;10.60;99.90;;;;;;4880537;29;20060;-77
2023/04/17 04:23:46;;;;;;;25.33;18.17;;;10.60;99.90;;;;;;4880629;29;20480;-78
2023/04/17 04:26:15;;;;;;;26.33;18.73;;;10.60;99.90;;;;;;4896996;29;20032;-77
2023/04/17 04:28:50;;;;;;;27.48;18.38;;;10.70;99.90;;;;;;4872803;29;20032;-77
2023/04/17 04:31:29;;;;;;;33.70;18.40;;;10.70;99.90;;;;;;4880538;29;20127;-77
2023/04/17 04:33:58;;;;;;;26.27;18.65;;;10.70;99.90;;;;;;4880163;29;20028;-77
2023/04/17 04:36:24;;;;;;;26.17;18.40;;;10.70;99.90;;;;;;4866377;29;20496;-77
2023/04/17 04:39:05;;;;;;;24.90;17.92;;;10.70;99.90;;;;;;4873257;29;20065;-76
2023/04/17 04:41:34;;;;;;;28.25;19.00;;;10.70;99.90;;;;;;4869263;29;20039;-77
2023/04/17 04:44:03;;;;;;;27.20;18.80;;;10.80;99.90;;;;;;4875114;29;20093;-71
2023/04/17 04:46:30;;;;;;;28.85;20.25;;;10.80;99.90;;;;;;4874423;29;20392;-76
2023/04/17 04:48:57;;;;;;;26.17;18.67;;;10.90;99.90;;;;;;4874152;29;20036;-72
2023/04/17 04:51:25;;;;;;;24.63;18.33;;;11.00;99.90;;;;;;4877612;29;20147;-77
2023/04/17 04:53:51;;;;;;;25.60;19.50;;;11.00;99.90;;;;;;4861507;29;20481;-78
2023/04/17 04:56:18;;;;;;;25.50;18.35;;;11.00;99.90;;;;;;4861694;29;20029;-78
2023/04/17 04:58:47;;;;;;;24.67;16.98;;;10.90;99.90;;;;;;4861452;29;20033;-78
2023/04/17 05:01:13;;;;;;;23.75;17.63;;;11.00;99.90;;;;;;4862469;29;20063;-76
2023/04/17 05:03:45;;;;;;;26.35;17.70;;;11.00;99.90;;;;;;4880007;29;20036;-77
2023/04/17 05:06:16;;;;;;;25.60;18.48;;;11.00;99.90;;;;;;4879430;29;20405;-77
2023/04/17 05:08:47;;;;;;;26.27;17.60;;;11.00;99.90;;;;;;4879963;29;20024;-77
2023/04/17 05:11:14;;;;;;;26.42;17.83;;;11.10;99.90;;;;;;4879795;29;20092;-77
2023/04/17 05:13:40;;;;;;;30.88;18.20;;;11.20;99.90;;;;;;4880134;29;20025;-77
2023/04/17 05:16:12;;;;;;;24.17;18.27;;;11.10;99.90;;;;;;4879718;29;20397;-74
2023/04/17 05:18:38;;;;;;;23.63;17.80;;;11.10;99.90;;;;;;4884675;29;20063;-77
2023/04/17 05:21:07;;;;;;;25.23;19.08;;;11.20;99.90;;;;;;4882693;29;20051;-75
2023/04/17 05:23:33;;;;;;;23.05;17.15;;;11.30;99.90;;;;;;4888209;29;20469;-76
2023/04/17 05:25:59;;;;;;;22.80;16.20;;;11.20;99.90;;;;;;4881271;29;20033;-73
2023/04/17 05:28:26;;;;;;;23.98;17.30;;;11.30;99.90;;;;;;4856926;29;20130;-76
2023/04/17 05:30:55;;;;;;;21.48;15.82;;;11.40;99.90;;;;;;4851156;29;20494;-75
2023/04/17 05:33:29;;;;;;;26.67;18.48;;;11.50;99.90;;;;;;4859875;29;20046;-77
2023/04/17 05:35:59;;;;;;;25.02;17.23;;;11.50;99.90;;;;;;4878972;29;20437;-75
2023/04/17 05:38:25;;;;;;;24.20;17.10;;;11.70;99.90;;;;;;4881270;29;20039;-75
2023/04/17 05:40:52;;;;;;;21.10;14.93;;;11.70;99.90;;;;;;4886372;29;20371;-74
2023/04/17 05:43:18;;;;;;;22.52;16.35;;;11.70;99.90;;;;;;4878916;29;20097;-74
2023/04/17 05:45:45;;;;;;;23.67;14.30;;;11.80;99.90;;;;;;4886007;29;20509;-76
2023/04/17 05:48:10;;;;;;;22.80;15.20;;;11.90;99.90;;;;;;4864750;29;20504;-73
2023/04/17 05:50:36;;;;;;;23.30;15.95;;;12.00;99.90;;;;;;4863426;29;20037;-75
2023/04/17 05:53:03;;;;;;;22.00;15.10;;;11.90;99.90;;;;;;4864684;29;20055;-75
2023/04/17 05:55:34;;;;;;;23.48;15.30;;;11.90;99.90;;;;;;4865565;29;20081;-76
2023/04/17 05:58:02;;;;;;;21.08;15.25;;;11.90;99.90;;;;;;4875433;29;20033;-74
2023/04/17 06:00:29;;;;;;;24.60;15.93;;;12.10;99.90;;;;;;4878564;29;20045;-77
2023/04/17 06:03:01;;;;;;;22.65;15.73;;;12.20;99.90;;;;;;4881102;29;20106;-76
2023/04/17 06:05:34;;;;;;;19.77;14.10;;;12.30;99.90;;;;;;4868319;29;20441;-78
2023/04/17 06:08:00;;;;;;;21.65;14.85;;;12.30;99.90;;;;;;4891730;29;20552;-77
2023/04/17 06:10:26;;;;;;;22.00;14.88;;;12.40;99.90;;;;;;4865463;29;20121;-76
2023/04/17 06:12:52;;;;;;;22.80;14.52;;;12.30;99.90;;;;;;4872355;29;20049;-74
2023/04/17 06:15:18;;;;;;;21.30;14.20;;;12.40;99.90;;;;;;4866564;29;20073;-76
2023/04/17 06:17:45;;;;;;;19.27;14.18;;;12.40;99.90;;;;;;4850768;29;20048;-73
2023/04/17 06:20:11;;;;;;;18.02;12.77;;;12.40;99.90;;;;;;4879101;29;20131;-77
2023/04/17 06:22:38;;;;;;;18.48;12.88;;;12.50;99.90;;;;;;4888476;29;20028;-77
2023/04/17 06:25:04;;;;;;;19.30;13.38;;;12.30;99.90;;;;;;4918449;29;20029;-75
2023/04/17 06:27:30;;;;;;;22.25;13.30;;;12.20;99.90;;;;;;4900649;29;20088;-76
2023/04/17 06:29:56;;;;;;;20.90;13.82;;;12.20;99.90;;;;;;4888637;29;20033;-73
2023/04/17 06:32:22;;;;;;;18.90;13.82;;;12.30;99.90;;;;;;4912037;29;20033;-77
2023/04/17 06:34:48;;;;;;;20.90;13.98;;;12.10;99.90;;;;;;4909419;29;20028;-75
2023/04/17 06:37:17;;;;;;;19.42;13.68;;;12.30;99.90;;;;;;4904684;29;20039;-76
2023/04/17 06:39:44;;;;;;;20.13;13.98;;;12.40;99.90;;;;;;4905231;29;20029;-77
2023/04/17 06:42:10;;;;;;;19.55;13.20;;;12.30;99.90;;;;;;4894833;29;20024;-76
2023/04/17 06:44:38;;;;;;;20.98;13.70;;;12.50;99.90;;;;;;4894441;29;20031;-74
2023/04/17 06:47:11;;;;;;;;;;;12.40;99.90;;;;;;4904904;29;20087;-76
2023/04/17 06:49:37;;;;;;;28.42;14.85;;;12.50;99.90;;;;;;4872516;29;19915;-75
2023/04/17 06:52:04;;;;;;;20.75;15.10;;;12.50;99.90;;;;;;4910246;29;20068;-74
2023/04/17 06:54:29;;;;;;;18.95;13.02;;;12.60;99.90;;;;;;4911260;29;20074;-75
2023/04/17 06:56:55;;;;;;;20.35;13.90;;;12.60;99.90;;;;;;4882131;29;20052;-76
2023/04/17 06:59:21;;;;;;;19.52;12.25;;;12.70;99.90;;;;;;4905107;29;20027;-75
2023/04/17 07:01:47;;;;;;;21.98;14.32;;;12.70;99.90;;;;;;4904670;29;20068;-74
2023/04/17 07:04:13;;;;;;;21.02;14.43;;;12.60;99.90;;;;;;4911311;29;20043;-73
2023/04/17 07:06:39;;;;;;;23.08;15.48;;;12.80;99.90;;;;;;4881934;29;20485;-71
2023/04/17 07:09:05;;;;;;;21.13;14.57;;;12.70;99.90;;;;;;4911041;29;20024;-74
2023/04/17 07:11:31;;;;;;;18.85;13.18;;;12.80;99.90;;;;;;4910692;29;20043;-78
2023/04/17 07:13:57;;;;;;;18.50;12.98;;;12.70;99.90;;;;;;4916345;29;20477;-78
2023/04/17 07:16:23;;;;;;;19.27;13.38;;;12.80;99.90;;;;;;4906686;29;20387;-72
2023/04/17 07:18:50;;;;;;;19.48;13.18;;;12.80;99.90;;;;;;4904752;29;20059;-76
2023/04/17 07:21:16;;;;;;;23.40;14.55;;;12.80;99.90;;;;;;4908786;29;20048;-76
2023/04/17 07:23:42;;;;;;;19.52;12.38;;;12.90;99.90;;;;;;4911814;29;20029;-77
2023/04/17 07:26:09;;;;;;;18.63;12.85;;;12.90;99.90;;;;;;4917306;29;20385;-72
2023/04/17 07:28:38;;;;;;;20.23;13.70;;;12.80;99.90;;;;;;4915838;29;20024;-75
2023/04/17 07:31:07;;;;;;;22.95;14.38;;;12.90;99.90;;;;;;4903421;29;20064;-76
2023/04/17 07:33:37;;;;;;;22.30;13.90;;;13.30;99.90;;;;;;4904968;29;20028;-76
2023/04/17 07:36:04;;;;;;;18.00;12.95;;;14.00;99.90;;;;;;4915505;29;20047;-74
2023/04/17 07:38:31;;;;;;;19.77;12.80;;;14.20;99.90;;;;;;4906098;29;20031;-75
2023/04/17 07:40:58;;;;;;;19.17;12.63;;;14.20;99.90;;;;;;4903896;29;20081;-75
2023/04/17 07:43:24;;;;;;;17.38;12.32;;;14.20;99.90;;;;;;4908324;29;20096;-74
2023/04/17 07:45:50;;;;;;;20.08;12.50;;;14.10;99.90;;;;;;4913066;29;20118;-74
2023/04/17 07:48:17;;;;;;;17.20;11.25;;;14.10;99.90;;;;;;4905147;29;20899;-74
2023/04/17 07:50:43;;;;;;;20.13;12.07;;;13.90;99.90;;;;;;4915565;29;20197;-72
2023/04/17 07:53:09;;;;;;;22.90;12.90;;;13.80;99.90;;;;;;4907848;29;20036;-75
2023/04/17 07:55:35;;;;;;;17.85;11.30;;;14.00;99.90;;;;;;4910136;29;20028;-75
2023/04/17 07:58:02;;;;;;;16.85;11.07;;;14.00;99.90;;;;;;4897483;29;20028;-75
2023/04/17 08:00:29;;;;;;;20.08;13.18;;;14.10;99.90;;;;;;4910382;29;20028;-75
2023/04/17 08:02:56;;;;;;;19.35;13.68;;;14.10;99.90;;;;;;4910098;29;20107;-75
2023/04/17 08:05:23;;;;;;;16.52;12.10;;;14.20;99.90;;;;;;4912331;29;20032;-74
2023/04/17 08:07:48;;;;;;;17.50;13.05;;;14.10;99.90;;;;;;4899957;29;20031;-74
2023/04/17 08:10:15;;;;;;;17.80;12.45;;;14.00;99.90;;;;;;4910981;29;20028;-74
2023/04/17 08:12:41;;;;;;;20.40;13.82;;;14.00;99.90;;;;;;4909652;29;20041;-74
2023/04/17 08:15:08;;;;;;;21.30;13.52;;;13.90;99.90;;;;;;4910068;29;20490;-72
2023/04/17 08:17:34;;;;;;;21.75;14.23;;;14.00;99.90;;;;;;4897365;29;20108;-73
2023/04/17 08:20:12;;;;;;;19.15;14.25;;;14.10;99.90;;;;;;4909441;29;20078;-74
2023/04/17 08:22:43;;;;;;;21.48;15.43;;;14.10;99.90;;;;;;4911700;29;20028;-73
2023/04/17 08:25:09;;;;;;;21.20;14.93;;;14.20;99.90;;;;;;4902479;29;20036;-74
2023/04/17 08:27:40;;;;;;;20.02;13.82;;;14.20;99.90;;;;;;4900939;29;20373;-72
2023/04/17 08:30:07;;;;;;;22.65;15.10;;;14.30;99.90;;;;;;4909971;29;20036;-74
2023/04/17 08:32:40;;;;;;;18.25;13.25;;;14.40;99.90;;;;;;4908684;29;20037;-73
2023/04/17 08:35:10;;;;;;;20.67;14.93;;;14.50;99.90;;;;;;4909336;29;20032;-74
2023/04/17 08:37:36;;;;;;;21.13;15.65;;;14.80;99.90;;;;;;4908722;29;20498;-74
2023/04/17 08:40:05;;;;;;;24.05;15.57;;;14.80;99.90;;;;;;4911832;29;20032;-75
2023/04/17 08:42:34;;;;;;;20.27;14.98;;;14.50;99.90;;;;;;4915837;29;20060;-74
2023/04/17 08:45:04;;;;;;;26.15;16.50;;;14.70;99.90;;;;;;4916065;29;20028;-72
2023/04/17 08:47:30;;;;;;;24.13;18.33;;;14.90;99.90;;;;;;4915903;29;20024;-74
2023/04/17 08:49:56;;;;;;;21.80;16.52;;;14.90;99.90;;;;;;4915060;29;20391;-74
2023/04/17 08:52:22;;;;;;;25.75;18.30;;;15.00;99.90;;;;;;4915554;29;20051;-73
2023/04/17 08:54:48;;;;;;;24.42;17.67;;;15.10;99.90;;;;;;4913813;29;20617;-73
2023/04/17 08:57:14;;;;;;;22.52;16.73;;;15.30;99.90;;;;;;4915638;29;20035;-72
2023/04/17 08:59:44;;;;;;;23.33;17.45;;;15.20;99.90;;;;;;4912358;29;20024;-75
2023/04/17 09:02:11;;;;;;;24.13;17.27;;;15.10;99.90;;;;;;4915706;29;20040;-73
2023/04/17 09:04:37;;;;;;;27.67;18.80;;;15.00;99.90;;;;;;4915194;29;20060;-74
2023/04/17 09:07:07;;;;;;;22.00;16.38;;;15.10;99.90;;;;;;4915645;29;20067;-74
2023/04/17 09:09:53;;;;;;;26.00;18.98;;;15.40;99.90;;;;;;4909410;29;20024;-74
2023/04/17 09:12:21;;;;;;;24.58;17.70;;;15.60;99.90;;;;;;4904119;29;20036;-74
2023/04/17 09:14:47;;;;;;;24.10;17.65;;;15.80;99.90;;;;;;4903029;29;20458;-74
2023/04/17 09:17:16;;;;;;;25.77;19.70;;;15.80;99.90;;;;;;4906775;29;20097;-74
2023/04/17 09:20:02;;;;;;;27.90;20.33;;;15.90;99.90;;;;;;4884571;29;20053;-74
2023/04/17 09:22:28;;;;;;;28.02;18.60;;;16.00;99.90;;;;;;4876392;29;20111;-76
2023/04/17 09:24:56;;;;;;;27.02;18.38;;;15.80;99.90;;;;;;4877382;29;20439;-75
2023/04/17 09:27:27;;;;;;;24.90;18.77;;;15.70;99.90;;;;;;4875367;29;20035;-74
2023/04/17 09:30:01;;;;;;;26.23;18.42;;;15.80;99.90;;;;;;4875452;29;20029;-73
2023/04/17 09:32:28;;;;;;;24.13;18.17;;;15.70;99.90;;;;;;4875868;29;20037;-73
2023/04/17 09:34:56;;;;;;;26.98;19.33;;;15.70;99.90;;;;;;4877379;29;20032;-76
2023/04/17 09:37:23;;;;;;;25.00;17.48;;;15.80;99.90;;;;;;4875944;29;20512;-76
2023/04/17 09:39:59;;;;;;;26.00;18.00;;;15.70;99.90;;;;;;4873129;29;20438;-75
2023/04/17 09:42:28;;;;;;;29.33;21.42;;;15.70;99.90;;;;;;4877458;29;20033;-74
2023/04/17 09:44:54;;;;;;;24.27;18.13;;;15.60;99.90;;;;;;4878079;29;20025;-75
2023/04/17 09:47:24;;;;;;;22.50;16.83;;;15.60;99.90;;;;;;4877775;29;20465;-76
2023/04/17 09:49:51;;;;;;;23.95;17.63;;;15.60;99.90;;;;;;4877881;29;20040;-76
2023/04/17 09:52:22;;;;;;;23.50;17.52;;;15.60;99.90;;;;;;4877555;29;20123;-73
2023/04/17 09:54:52;;;;;;;23.40;17.40;;;15.50;99.90;;;;;;4877529;29;20033;-72
2023/04/17 09:57:18;;;;;;;24.17;17.50;;;15.30;99.90;;;;;;4877508;29;20025;-78
2023/04/17 09:59:48;;;;;;;23.15;17.60;;;15.40;99.90;;;;;;4877295;29;20033;-72
2023/04/17 10:02:16;;;;;;;29.17;17.70;;;15.40;99.90;;;;;;4877733;29;20029;-71
2023/04/17 10:04:49;;;;;;;29.83;18.60;;;15.20;99.90;;;;;;4878128;29;20509;-72
2023/04/17 10:07:16;;;;;;;24.17;17.58;;;15.10;99.90;;;;;;4879086;29;20041;-73
2023/04/17 10:09:46;;;;;;;24.25;17.63;;;15.00;99.90;;;;;;4875338;29;20025;-72
2023/04/17 10:12:17;;;;;;;26.00;19.02;;;15.00;99.90;;;;;;4871612;29;20037;-73
2023/04/17 10:14:47;;;;;;;23.42;17.42;;;15.10;99.90;;;;;;4877562;29;20464;-73
2023/04/17 10:17:36;;;;;;;28.55;18.63;;;15.20;99.90;;;;;;4878171;29;20033;-71
2023/04/17 10:20:18;;;;;;;26.70;19.30;;;15.30;99.90;;;;;;4894094;29;20132;-73
2023/04/17 10:22:52;;;;;;;25.20;17.10;;;15.30;99.90;;;;;;4898304;29;20100;-71
2023/04/17 10:25:21;;;;;;;24.88;17.08;;;15.40;99.90;;;;;;4897713;29;20024;-72
2023/04/17 10:27:58;;;;;;;22.73;15.77;;;15.50;99.90;;;;;;4899319;29;20036;-73
2023/04/17 10:30:53;;;;;;;26.80;18.73;;;15.30;99.90;;;;;;4899596;29;20215;-73
2023/04/17 10:33:24;;;;;;;27.25;19.50;;;15.40;99.90;;;;;;4897026;29;20075;-72
2023/04/17 10:35:51;;;;;;;23.05;18.30;;;15.40;99.90;;;;;;4897132;29;20070;-74
2023/04/17 10:38:34;;;;;;;28.98;21.10;;;15.60;99.90;;;;;;4899229;29;20382;-74
2023/04/17 10:41:07;;;;;;;27.40;20.80;;;15.60;99.90;;;;;;4897932;29;20067;-74
2023/04/17 10:43:33;;;;;;;28.00;20.55;;;15.90;99.90;;;;;;4896041;29;20112;-74
2023/04/17 10:46:12;;;;;;;30.08;21.88;;;15.80;99.90;;;;;;4895116;29;20113;-74
2023/04/17 10:48:58;;;;;;;27.30;21.15;;;16.00;99.90;;;;;;4897837;29;20040;-74
2023/04/17 10:51:40;;;;;;;28.55;21.58;;;16.10;99.90;;;;;;4897704;29;20059;-74
2023/04/17 10:54:09;;;;;;;28.43;20.03;;;16.40;99.90;;;;;;4899240;29;20041;-73
2023/04/17 10:56:41;;;;;;;28.00;20.17;;;16.60;99.90;;;;;;4898803;29;20032;-73
2023/04/17 10:59:10;;;;;;;25.63;20.35;;;16.60;99.90;;;;;;4897973;29;20032;-75
2023/04/17 11:01:48;;;;;;;28.13;20.35;;;16.80;99.90;;;;;;4886530;29;20031;-73
2023/04/17 11:04:32;;;;;;;30.30;22.27;;;17.10;99.90;;;;;;4898466;29;20049;-74
2023/04/17 11:06:59;;;;;;;29.02;21.48;;;17.20;99.90;;;;;;4898794;29;20051;-75
2023/04/17 11:09:27;;;;;;;29.77;21.23;;;17.40;99.90;;;;;;4898404;29;20061;-75
2023/04/17 11:12:00;;;;;;;28.00;21.23;;;17.80;99.90;;;;;;4898108;29;20048;-75
2023/04/17 11:14:26;;;;;;;30.60;18.63;;;17.90;99.90;;;;;;4897352;29;20536;-76
2023/04/17 11:16:52;;;;;;;20.50;14.13;;;17.80;99.90;;;;;;4898321;29;20029;-77
2023/04/17 11:19:21;;;;;;;20.88;15.60;;;17.90;99.90;;;;;;4898218;29;20124;-77
2023/04/17 11:21:52;;;;;;;22.42;15.43;;;17.70;99.90;;;;;;4898292;29;20105;-76
2023/04/17 11:24:25;;;;;;;21.92;15.40;;;17.60;99.90;;;;;;4896700;29;20570;-75
2023/04/17 11:26:52;;;;;;;21.60;15.85;;;17.50;99.90;;;;;;4898238;29;20546;-76
2023/04/17 11:29:19;;;;;;;22.25;14.65;;;17.20;99.90;;;;;;4897204;29;20025;-74
2023/04/17 11:31:46;;;;;;;19.65;13.68;;;17.50;99.90;;;;;;4896876;29;20557;-74
2023/04/17 11:34:13;;;;;;;20.40;14.13;;;17.50;99.90;;;;;;4881589;29;20492;-75
2023/04/17 11:36:39;;;;;;;20.13;14.93;;;17.40;99.90;;;;;;4897661;29;20504;-74
2023/04/17 11:39:04;;;;;;;20.95;13.68;;;17.30;99.90;;;;;;4897456;29;20029;-76
2023/04/17 11:41:37;;;;;;;22.25;15.30;;;17.30;99.90;;;;;;4896674;29;20039;-75
2023/04/17 11:44:07;;;;;;;19.45;14.07;;;17.00;99.90;;;;;;4896808;29;20036;-74
2023/04/17 11:46:36;;;;;;;22.77;14.00;;;16.90;99.90;;;;;;4896980;29;20028;-75
2023/04/17 11:49:05;;;;;;;19.08;12.98;;;16.80;99.90;;;;;;4897104;29;20473;-73
2023/04/17 11:51:31;;;;;;;22.52;14.35;;;16.50;99.90;;;;;;4896566;29;20021;-75
2023/04/17 11:54:00;;;;;;;30.90;20.33;;;16.40;99.90;;;;;;4899140;29;20040;-75
2023/04/17 11:56:29;;;;;;;34.80;22.50;;;16.30;99.90;;;;;;4897181;29;20094;-73
2023/04/17 11:58:57;;;;;;;34.28;21.13;;;15.80;99.90;;;;;;4897466;29;20456;-73
2023/04/17 12:01:27;;;;;;;26.05;18.88;;;15.70;99.90;;;;;;4896616;29;20036;-75
2023/04/17 12:03:56;;;;;;;33.03;21.02;;;15.60;99.90;;;;;;4893790;29;20056;-75
2023/04/17 12:06:23;;;;;;;30.20;22.33;;;15.50;99.90;;;;;;4890537;29;20029;-74
2023/04/17 12:09:09;;;;;;;33.63;24.35;;;15.00;99.90;;;;;;4895749;29;20036;-74
2023/04/17 12:12:19;;;;;;;30.85;22.30;;;15.00;99.90;;;;;;4885740;29;20024;-74
2023/04/17 12:15:54;;;;;;;30.08;21.52;;;14.50;99.90;;;;;;4800340;29;20542;-73
2023/04/17 12:19:00;;;;;;;29.60;17.95;;;14.50;99.90;;;;;;4761587;29;20054;-73
2023/04/17 12:21:26;;;;;;;27.88;18.20;;;14.60;99.90;;;;;;4806050;29;20035;-73
2023/04/17 12:23:52;;;;;;;24.35;16.02;;;14.70;99.90;;;;;;4806142;29;20035;-72
2023/04/17 12:26:18;;;;;;;24.02;17.45;;;14.80;99.90;;;;;;4803896;29;20066;-73
2023/04/17 12:28:44;;;;;;;29.80;20.38;;;14.90;99.90;;;;;;4802989;29;20039;-72
2023/04/17 12:34:53;;;;;;;25.33;15.98;;;14.90;99.90;;;;;;4751608;30;20520;-73
2023/04/17 12:37:22;;;;;;;22.08;16.10;;;14.80;99.90;;;;;;4747319;30;20044;-73
2023/04/17 12:40:03;;;;;;;24.73;18.35;;;14.80;99.90;;;;;;4748300;30;20061;-74